sensor_id;sensor_type;location;lat;lon;timestamp;temperature;humidity
3628;DHT22;1830;49.000;12.074;2024-02-14T00:01:12;2.40;99.90
3628;DHT22;1830;49.000;12.074;2024-02-14T00:03:39;2.40;99.90
3628;DHT22;1830;49.000;12.074;2024-02-14T00:06:06;2.40;99.90
3628;DHT22;1830;49.000;12.074;2024-02-14T00:08:36;2.40;99.90
3628;DHT22;1830;49.000;12.074;2024-02-14T00:11:05;2.40;99.90
3628;DHT22;1830;49.000;12.074;2024-02-14T00:13:32;2.40;99.90
3628;DHT22;1830;49.000;12.074;2024-02-14T00:15:59;2.30;99.90
3628;DHT22;1830;49.000;12.074;2024-02-14T00:18:26;2.30;99.90
3628;DHT22;1830;49.000;12.074;2024-02-14T00:20:53;2.20;99.90
3628;DHT22;1830;49.000;12.074;2024-02-14T00:23:25;2.20;99.90
3628;DHT22;1830;49.000;12.074;2024-02-14T00:25:54;2.20;99.90
3628;DHT22;1830;49.000;12.074;2024-02-14T00:28:23;2.30;99.90
3628;DHT22;1830;49.000;12.074;2024-02-14T00:30:52;2.30;99.90
3628;DHT22;1830;49.000;12.074;2024-02-14T00:33:19;2.20;99.90
3628;DHT22;1830;49.000;12.074;2024-02-14T00:35:47;2.30;99.90
3628;DHT22;1830;49.000;12.074;2024-02-14T00:38:14;2.20;99.90
3628;DHT22;1830;49.000;12.074;2024-02-14T00:40:41;2.20;99.90
3628;DHT22;1830;49.000;12.074;2024-02-14T00:43:12;2.20;99.90
3628;DHT22;1830;49.000;12.074;2024-02-14T00:45:40;2.10;99.90
3628;DHT22;1830;49.000;12.074;2024-02-14T00:48:07;2.20;99.90
3628;DHT22;1830;49.000;12.074;2024-02-14T00:50:39;2.10;99.90
3628;DHT22;1830;49.000;12.074;2024-02-14T00:53:09;2.10;99.90
3628;DHT22;1830;49.000;12.074;2024-02-14T00:55:36;2.10;99.90
3628;DHT22;1830;49.000;12.074;2024-02-14T00:58:03;2.00;99.90
3628;DHT22;1830;49.000;12.074;2024-02-14T01:00:31;2.00;99.90
3628;DHT22;1830;49.000;12.074;2024-02-14T01:02:59;2.10;99.90
3628;DHT22;1830;49.000;12.074;2024-02-14T01:05:26;2.00;99.90
3628;DHT22;1830;49.000;12.074;2024-02-14T01:07:53;2.00;99.90
3628;DHT22;1830;49.000;12.074;2024-02-14T01:10:20;2.00;99.90
3628;DHT22;1830;49.000;12.074;2024-02-14T01:12:47;1.90;99.90
3628;DHT22;1830;49.000;12.074;2024-02-14T01:15:17;2.00;99.90
3628;DHT22;1830;49.000;12.074;2024-02-14T01:17:46;2.00;99.90
3628;DHT22;1830;49.000;12.074;2024-02-14T01:20:18;2.00;99.90
3628;DHT22;1830;49.000;12.074;2024-02-14T01:22:45;2.00;99.90
3628;DHT22;1830;49.000;12.074;2024-02-14T01:25:16;2.00;99.90
3628;DHT22;1830;49.000;12.074;2024-02-14T01:27:43;2.00;99.90
3628;DHT22;1830;49.000;12.074;2024-02-14T01:30:10;2.10;99.90
3628;DHT22;1830;49.000;12.074;2024-02-14T01:32:37;2.10;99.90
3628;DHT22;1830;49.000;12.074;2024-02-14T01:35:11;2.20;99.90
3628;DHT22;1830;49.000;12.074;2024-02-14T01:37:45;2.20;99.90
3628;DHT22;1830;49.000;12.074;2024-02-14T01:40:18;2.30;99.90
3628;DHT22;1830;49.000;12.074;2024-02-14T01:42:45;2.30;99.90
3628;DHT22;1830;49.000;12.074;2024-02-14T01:45:17;2.30;99.90
3628;DHT22;1830;49.000;12.074;2024-02-14T01:47:49;2.40;99.90
3628;DHT22;1830;49.000;12.074;2024-02-14T01:50:23;2.40;99.90
3628;DHT22;1830;49.000;12.074;2024-02-14T01:52:56;2.40;99.90
3628;DHT22;1830;49.000;12.074;2024-02-14T01:55:25;2.50;99.90
3628;DHT22;1830;49.000;12.074;2024-02-14T01:57:53;2.40;99.90
3628;DHT22;1830;49.000;12.074;2024-02-14T02:00:21;2.50;99.90
3628;DHT22;1830;49.000;12.074;2024-02-14T02:02:48;2.50;99.90
3628;DHT22;1830;49.000;12.074;2024-02-14T02:05:15;2.50;99.90
3628;DHT22;1830;49.000;12.074;2024-02-14T02:07:42;2.50;99.90
3628;DHT22;1830;49.000;12.074;2024-02-14T02:10:13;2.60;99.90
3628;DHT22;1830;49.000;12.074;2024-02-14T02:12:40;2.60;99.90
3628;DHT22;1830;49.000;12.074;2024-02-14T02:15:08;2.70;99.90
3628;DHT22;1830;49.000;12.074;2024-02-14T02:17:36;2.70;99.90
3628;DHT22;1830;49.000;12.074;2024-02-14T02:20:04;2.80;99.90
3628;DHT22;1830;49.000;12.074;2024-02-14T02:22:33;2.80;99.90
3628;DHT22;1830;49.000;12.074;2024-02-14T02:25:02;2.90;99.90
3628;DHT22;1830;49.000;12.074;2024-02-14T02:27:33;2.90;99.90
3628;DHT22;1830;49.000;12.074;2024-02-14T02:30:03;2.90;99.90
3628;DHT22;1830;49.000;12.074;2024-02-14T02:32:31;3.00;99.90
3628;DHT22;1830;49.000;12.074;2024-02-14T02:35:01;3.10;99.90
3628;DHT22;1830;49.000;12.074;2024-02-14T02:37:31;3.10;99.90
3628;DHT22;1830;49.000;12.074;2024-02-14T02:39:58;3.20;99.90
3628;DHT22;1830;49.000;12.074;2024-02-14T02:42:26;3.20;99.90
3628;DHT22;1830;49.000;12.074;2024-02-14T02:44:54;3.30;99.90
3628;DHT22;1830;49.000;12.074;2024-02-14T02:47:21;3.20;99.90
3628;DHT22;1830;49.000;12.074;2024-02-14T02:49:48;3.10;99.90
3628;DHT22;1830;49.000;12.074;2024-02-14T02:52:15;3.10;99.90
3628;DHT22;1830;49.000;12.074;2024-02-14T02:54:42;3.00;99.90
3628;DHT22;1830;49.000;12.074;2024-02-14T02:57:10;3.00;99.90
3628;DHT22;1830;49.000;12.074;2024-02-14T02:59:38;3.00;99.90
3628;DHT22;1830;49.000;12.074;2024-02-14T03:02:08;3.00;99.90
3628;DHT22;1830;49.000;12.074;2024-02-14T03:04:37;3.00;99.90
3628;DHT22;1830;49.000;12.074;2024-02-14T03:07:04;3.00;99.90
3628;DHT22;1830;49.000;12.074;2024-02-14T03:09:33;3.00;99.90
3628;DHT22;1830;49.000;12.074;2024-02-14T03:12:01;2.90;99.90
3628;DHT22;1830;49.000;12.074;2024-02-14T03:14:29;2.80;99.90
3628;DHT22;1830;49.000;12.074;2024-02-14T03:16:59;2.80;99.90
3628;DHT22;1830;49.000;12.074;2024-02-14T03:19:27;2.80;99.90
3628;DHT22;1830;49.000;12.074;2024-02-14T03:21:54;2.80;99.90
3628;DHT22;1830;49.000;12.074;2024-02-14T03:24:21;2.90;99.90
3628;DHT22;1830;49.000;12.074;2024-02-14T03:26:48;2.90;99.90
3628;DHT22;1830;49.000;12.074;2024-02-14T03:29:17;2.90;99.90
3628;DHT22;1830;49.000;12.074;2024-02-14T03:31:44;2.90;99.90
3628;DHT22;1830;49.000;12.074;2024-02-14T03:34:12;2.80;99.90
3628;DHT22;1830;49.000;12.074;2024-02-14T03:36:39;2.80;99.90
3628;DHT22;1830;49.000;12.074;2024-02-14T03:39:07;2.80;99.90
3628;DHT22;1830;49.000;12.074;2024-02-14T03:41:34;2.80;99.90
3628;DHT22;1830;49.000;12.074;2024-02-14T03:44:05;2.80;99.90
3628;DHT22;1830;49.000;12.074;2024-02-14T03:46:35;2.70;99.90
3628;DHT22;1830;49.000;12.074;2024-02-14T03:49:02;2.70;99.90
3628;DHT22;1830;49.000;12.074;2024-02-14T03:51:31;2.70;99.90
3628;DHT22;1830;49.000;12.074;2024-02-14T03:53:57;2.60;99.90
3628;DHT22;1830;49.000;12.074;2024-02-14T03:56:24;2.70;99.90
3628;DHT22;1830;49.000;12.074;2024-02-14T03:58:51;2.70;99.90
3628;DHT22;1830;49.000;12.074;2024-02-14T04:01:18;2.70;99.90
3628;DHT22;1830;49.000;12.074;2024-02-14T04:03:46;2.70;99.90
3628;DHT22;1830;49.000;12.074;2024-02-14T04:06:16;2.80;99.90
3628;DHT22;1830;49.000;12.074;2024-02-14T04:08:45;2.80;99.90
3628;DHT22;1830;49.000;12.074;2024-02-14T04:11:12;2.70;99.90
3628;DHT22;1830;49.000;12.074;2024-02-14T04:13:39;2.80;99.90
3628;DHT22;1830;49.000;12.074;2024-02-14T04:16:07;2.80;99.90
3628;DHT22;1830;49.000;12.074;2024-02-14T04:18:34;2.80;99.90
3628;DHT22;1830;49.000;12.074;2024-02-14T04:21:00;2.80;99.90
3628;DHT22;1830;49.000;12.074;2024-02-14T04:23:29;2.80;99.90
3628;DHT22;1830;49.000;12.074;2024-02-14T04:25:59;2.80;99.90
3628;DHT22;1830;49.000;12.074;2024-02-14T04:28:26;2.80;99.90
3628;DHT22;1830;49.000;12.074;2024-02-14T04:30:53;2.70;99.90
3628;DHT22;1830;49.000;12.074;2024-02-14T04:33:21;2.70;99.90
3628;DHT22;1830;49.000;12.074;2024-02-14T04:35:48;2.70;99.90
3628;DHT22;1830;49.000;12.074;2024-02-14T04:38:15;2.70;99.90
3628;DHT22;1830;49.000;12.074;2024-02-14T04:40:45;2.70;99.90
3628;DHT22;1830;49.000;12.074;2024-02-14T04:43:17;2.70;99.90
3628;DHT22;1830;49.000;12.074;2024-02-14T04:45:45;2.60;99.90
3628;DHT22;1830;49.000;12.074;2024-02-14T04:48:12;2.60;99.90
3628;DHT22;1830;49.000;12.074;2024-02-14T04:50:42;2.70;99.90
3628;DHT22;1830;49.000;12.074;2024-02-14T04:53:09;2.60;99.90
3628;DHT22;1830;49.000;12.074;2024-02-14T04:55:36;2.40;99.90
3628;DHT22;1830;49.000;12.074;2024-02-14T04:58:03;2.40;99.90
3628;DHT22;1830;49.000;12.074;2024-02-14T05:00:32;2.40;99.90
3628;DHT22;1830;49.000;12.074;2024-02-14T05:03:02;2.40;99.90
3628;DHT22;1830;49.000;12.074;2024-02-14T05:05:43;2.30;99.90
3628;DHT22;1830;49.000;12.074;2024-02-14T05:08:10;2.20;99.90
3628;DHT22;1830;49.000;12.074;2024-02-14T05:10:37;2.20;99.90
3628;DHT22;1830;49.000;12.074;2024-02-14T05:13:04;2.20;99.90
3628;DHT22;1830;49.000;12.074;2024-02-14T05:15:32;2.10;99.90
3628;DHT22;1830;49.000;12.074;2024-02-14T05:18:00;2.00;99.90
3628;DHT22;1830;49.000;12.074;2024-02-14T05:20:27;2.00;99.90
3628;DHT22;1830;49.000;12.074;2024-02-14T05:22:54;2.00;99.90
3628;DHT22;1830;49.000;12.074;2024-02-14T05:25:21;2.00;99.90
3628;DHT22;1830;49.000;12.074;2024-02-14T05:27:48;2.00;99.90
3628;DHT22;1830;49.000;12.074;2024-02-14T05:30:15;2.00;99.90
3628;DHT22;1830;49.000;12.074;2024-02-14T05:32:43;2.00;99.90
3628;DHT22;1830;49.000;12.074;2024-02-14T05:35:10;2.10;99.90
3628;DHT22;1830;49.000;12.074;2024-02-14T05:37:37;2.00;99.90
3628;DHT22;1830;49.000;12.074;2024-02-14T05:40:05;2.00;99.90
3628;DHT22;1830;49.000;12.074;2024-02-14T05:42:33;2.00;99.90
3628;DHT22;1830;49.000;12.074;2024-02-14T05:45:04;2.10;99.90
3628;DHT22;1830;49.000;12.074;2024-02-14T05:47:31;2.10;99.90
3628;DHT22;1830;49.000;12.074;2024-02-14T05:49:59;3.10;99.90
3628;DHT22;1830;49.000;12.074;2024-02-14T05:52:26;2.80;99.90
3628;DHT22;1830;49.000;12.074;2024-02-14T05:54:53;2.70;99.90
3628;DHT22;1830;49.000;12.074;2024-02-14T05:57:19;2.40;99.90
3628;DHT22;1830;49.000;12.074;2024-02-14T05:59:46;2.40;99.90
3628;DHT22;1830;49.000;12.074;2024-02-14T06:02:13;2.30;99.90
3628;DHT22;1830;49.000;12.074;2024-02-14T06:04:40;2.30;99.90
3628;DHT22;1830;49.000;12.074;2024-02-14T06:07:09;2.20;99.90
3628;DHT22;1830;49.000;12.074;2024-02-14T06:09:37;2.10;99.90
3628;DHT22;1830;49.000;12.074;2024-02-14T06:12:04;2.00;99.90
3628;DHT22;1830;49.000;12.074;2024-02-14T06:14:31;2.10;99.90
3628;DHT22;1830;49.000;12.074;2024-02-14T06:16:59;2.00;99.90
3628;DHT22;1830;49.000;12.074;2024-02-14T06:19:26;2.00;99.90
3628;DHT22;1830;49.000;12.074;2024-02-14T06:21:53;2.00;99.90
3628;DHT22;1830;49.000;12.074;2024-02-14T06:24:21;2.00;99.90
3628;DHT22;1830;49.000;12.074;2024-02-14T06:26:48;2.00;99.90
3628;DHT22;1830;49.000;12.074;2024-02-14T06:29:14;2.10;99.90
3628;DHT22;1830;49.000;12.074;2024-02-14T06:31:42;2.00;99.90
3628;DHT22;1830;49.000;12.074;2024-02-14T06:34:08;2.00;99.90
3628;DHT22;1830;49.000;12.074;2024-02-14T06:36:36;2.00;99.90
3628;DHT22;1830;49.000;12.074;2024-02-14T06:39:03;2.00;99.90
3628;DHT22;1830;49.000;12.074;2024-02-14T06:41:32;2.10;99.90
3628;DHT22;1830;49.000;12.074;2024-02-14T06:43:59;2.20;99.90
3628;DHT22;1830;49.000;12.074;2024-02-14T06:46:25;2.20;99.90
3628;DHT22;1830;49.000;12.074;2024-02-14T06:48:52;2.20;99.90
3628;DHT22;1830;49.000;12.074;2024-02-14T06:51:20;2.30;99.90
3628;DHT22;1830;49.000;12.074;2024-02-14T06:53:47;2.20;99.90
3628;DHT22;1830;49.000;12.074;2024-02-14T06:56:14;2.40;99.90
3628;DHT22;1830;49.000;12.074;2024-02-14T06:58:42;2.50;99.90
3628;DHT22;1830;49.000;12.074;2024-02-14T07:01:09;2.40;99.90
3628;DHT22;1830;49.000;12.074;2024-02-14T07:03:37;2.40;99.90
3628;DHT22;1830;49.000;12.074;2024-02-14T07:06:05;2.40;99.90
3628;DHT22;1830;49.000;12.074;2024-02-14T07:08:33;2.50;99.90
3628;DHT22;1830;49.000;12.074;2024-02-14T07:11:00;2.50;99.90
3628;DHT22;1830;49.000;12.074;2024-02-14T07:13:27;2.40;99.90
3628;DHT22;1830;49.000;12.074;2024-02-14T07:15:55;2.40;99.90
3628;DHT22;1830;49.000;12.074;2024-02-14T07:18:22;2.50;99.90
3628;DHT22;1830;49.000;12.074;2024-02-14T07:20:48;2.60;99.90
3628;DHT22;1830;49.000;12.074;2024-02-14T07:23:16;2.60;99.90
3628;DHT22;1830;49.000;12.074;2024-02-14T07:25:43;2.50;99.90
3628;DHT22;1830;49.000;12.074;2024-02-14T07:28:10;2.40;99.90
3628;DHT22;1830;49.000;12.074;2024-02-14T07:30:37;2.40;99.90
3628;DHT22;1830;49.000;12.074;2024-02-14T07:33:05;2.60;99.90
3628;DHT22;1830;49.000;12.074;2024-02-14T07:35:33;2.70;99.90
3628;DHT22;1830;49.000;12.074;2024-02-14T07:38:00;2.80;99.90
3628;DHT22;1830;49.000;12.074;2024-02-14T07:40:27;2.90;99.90
3628;DHT22;1830;49.000;12.074;2024-02-14T07:42:56;2.90;99.90
3628;DHT22;1830;49.000;12.074;2024-02-14T07:45:23;2.90;99.90
3628;DHT22;1830;49.000;12.074;2024-02-14T07:47:50;2.80;99.90
3628;DHT22;1830;49.000;12.074;2024-02-14T07:50:19;2.90;99.90
3628;DHT22;1830;49.000;12.074;2024-02-14T07:52:48;3.00;99.90
3628;DHT22;1830;49.000;12.074;2024-02-14T07:55:15;3.00;99.90
3628;DHT22;1830;49.000;12.074;2024-02-14T07:57:42;3.00;99.90
3628;DHT22;1830;49.000;12.074;2024-02-14T08:00:10;3.00;99.90
3628;DHT22;1830;49.000;12.074;2024-02-14T08:02:37;3.00;99.90
3628;DHT22;1830;49.000;12.074;2024-02-14T08:05:04;3.00;99.90
3628;DHT22;1830;49.000;12.074;2024-02-14T08:07:33;2.70;99.90
3628;DHT22;1830;49.000;12.074;2024-02-14T08:10:00;2.80;99.90
3628;DHT22;1830;49.000;12.074;2024-02-14T08:12:26;2.80;99.90
3628;DHT22;1830;49.000;12.074;2024-02-14T08:14:53;2.90;99.90
3628;DHT22;1830;49.000;12.074;2024-02-14T08:17:20;3.00;99.90
3628;DHT22;1830;49.000;12.074;2024-02-14T08:19:47;3.10;99.90
3628;DHT22;1830;49.000;12.074;2024-02-14T08:22:14;3.00;99.90
3628;DHT22;1830;49.000;12.074;2024-02-14T08:24:42;2.90;99.90
3628;DHT22;1830;49.000;12.074;2024-02-14T08:27:09;3.10;99.90
3628;DHT22;1830;49.000;12.074;2024-02-14T08:29:36;3.00;99.90
3628;DHT22;1830;49.000;12.074;2024-02-14T08:32:03;3.10;99.90
3628;DHT22;1830;49.000;12.074;2024-02-14T08:34:30;3.10;99.90
3628;DHT22;1830;49.000;12.074;2024-02-14T08:36:57;3.10;99.90
3628;DHT22;1830;49.000;12.074;2024-02-14T08:39:24;3.20;99.90
3628;DHT22;1830;49.000;12.074;2024-02-14T08:41:53;3.20;99.90
3628;DHT22;1830;49.000;12.074;2024-02-14T08:44:20;3.20;99.90
3628;DHT22;1830;49.000;12.074;2024-02-14T08:46:46;3.40;99.90
3628;DHT22;1830;49.000;12.074;2024-02-14T08:49:14;3.50;99.90
3628;DHT22;1830;49.000;12.074;2024-02-14T08:51:41;3.60;99.90
3628;DHT22;1830;49.000;12.074;2024-02-14T08:54:09;3.60;99.90
3628;DHT22;1830;49.000;12.074;2024-02-14T08:56:37;3.60;99.90
3628;DHT22;1830;49.000;12.074;2024-02-14T08:59:05;3.60;99.90
3628;DHT22;1830;49.000;12.074;2024-02-14T09:01:32;3.60;99.90
3628;DHT22;1830;49.000;12.074;2024-02-14T09:03:59;3.80;99.90
3628;DHT22;1830;49.000;12.074;2024-02-14T09:06:26;3.80;99.90
3628;DHT22;1830;49.000;12.074;2024-02-14T09:08:53;3.90;99.90
3628;DHT22;1830;49.000;12.074;2024-02-14T09:11:20;3.80;99.90
3628;DHT22;1830;49.000;12.074;2024-02-14T09:13:48;3.80;99.90
3628;DHT22;1830;49.000;12.074;2024-02-14T09:16:20;3.80;99.90
3628;DHT22;1830;49.000;12.074;2024-02-14T09:18:48;3.80;99.90
3628;DHT22;1830;49.000;12.074;2024-02-14T09:21:15;3.90;99.90
3628;DHT22;1830;49.000;12.074;2024-02-14T09:23:42;4.00;99.90
3628;DHT22;1830;49.000;12.074;2024-02-14T09:26:10;4.10;99.90
3628;DHT22;1830;49.000;12.074;2024-02-14T09:28:40;4.30;99.90
3628;DHT22;1830;49.000;12.074;2024-02-14T09:31:07;4.40;99.90
3628;DHT22;1830;49.000;12.074;2024-02-14T09:33:38;4.50;99.90
3628;DHT22;1830;49.000;12.074;2024-02-14T09:36:06;4.50;99.90
3628;DHT22;1830;49.000;12.074;2024-02-14T09:38:33;4.70;99.90
3628;DHT22;1830;49.000;12.074;2024-02-14T09:41:05;4.70;99.90
3628;DHT22;1830;49.000;12.074;2024-02-14T09:43:36;4.80;99.90
3628;DHT22;1830;49.000;12.074;2024-02-14T09:46:04;4.90;99.90
3628;DHT22;1830;49.000;12.074;2024-02-14T09:48:33;5.00;99.90
3628;DHT22;1830;49.000;12.074;2024-02-14T09:51:02;4.90;99.90
3628;DHT22;1830;49.000;12.074;2024-02-14T09:53:30;4.90;99.90
3628;DHT22;1830;49.000;12.074;2024-02-14T09:55:57;5.00;99.90
3628;DHT22;1830;49.000;12.074;2024-02-14T09:58:25;5.10;99.90
3628;DHT22;1830;49.000;12.074;2024-02-14T10:00:53;5.10;99.90
3628;DHT22;1830;49.000;12.074;2024-02-14T10:03:20;5.20;99.90
3628;DHT22;1830;49.000;12.074;2024-02-14T10:05:47;5.10;99.90
3628;DHT22;1830;49.000;12.074;2024-02-14T10:08:16;5.20;99.90
3628;DHT22;1830;49.000;12.074;2024-02-14T10:10:44;5.30;99.90
3628;DHT22;1830;49.000;12.074;2024-02-14T10:13:11;5.30;99.90
3628;DHT22;1830;49.000;12.074;2024-02-14T10:15:38;5.30;99.90
3628;DHT22;1830;49.000;12.074;2024-02-14T10:18:05;5.40;99.90
3628;DHT22;1830;49.000;12.074;2024-02-14T10:20:35;5.50;99.90
3628;DHT22;1830;49.000;12.074;2024-02-14T10:23:07;5.50;99.90
3628;DHT22;1830;49.000;12.074;2024-02-14T10:25:36;5.50;99.90
3628;DHT22;1830;49.000;12.074;2024-02-14T10:28:04;5.50;99.90
3628;DHT22;1830;49.000;12.074;2024-02-14T10:30:34;5.60;99.90
3628;DHT22;1830;49.000;12.074;2024-02-14T10:33:04;5.50;99.90
3628;DHT22;1830;49.000;12.074;2024-02-14T10:35:32;5.40;99.90
3628;DHT22;1830;49.000;12.074;2024-02-14T10:38:00;5.40;99.90
3628;DHT22;1830;49.000;12.074;2024-02-14T10:40:28;5.40;99.90
3628;DHT22;1830;49.000;12.074;2024-02-14T10:42:57;5.20;99.90
3628;DHT22;1830;49.000;12.074;2024-02-14T10:45:24;5.20;99.90
3628;DHT22;1830;49.000;12.074;2024-02-14T10:47:53;5.30;99.90
3628;DHT22;1830;49.000;12.074;2024-02-14T10:50:22;5.30;99.90
3628;DHT22;1830;49.000;12.074;2024-02-14T10:52:49;5.30;99.90
3628;DHT22;1830;49.000;12.074;2024-02-14T10:55:16;5.30;99.90
3628;DHT22;1830;49.000;12.074;2024-02-14T10:57:44;5.30;99.90
3628;DHT22;1830;49.000;12.074;2024-02-14T11:00:15;5.20;99.90
3628;DHT22;1830;49.000;12.074;2024-02-14T11:02:43;5.20;99.90
3628;DHT22;1830;49.000;12.074;2024-02-14T11:05:13;5.20;99.90
3628;DHT22;1830;49.000;12.074;2024-02-14T11:07:44;5.20;99.90
3628;DHT22;1830;49.000;12.074;2024-02-14T11:10:14;5.10;99.90
3628;DHT22;1830;49.000;12.074;2024-02-14T11:12:41;5.10;99.90
3628;DHT22;1830;49.000;12.074;2024-02-14T11:15:15;5.10;99.90
3628;DHT22;1830;49.000;12.074;2024-02-14T11:17:43;5.10;99.90
3628;DHT22;1830;49.000;12.074;2024-02-14T11:20:15;5.20;99.90
3628;DHT22;1830;49.000;12.074;2024-02-14T11:22:52;5.20;99.90
3628;DHT22;1830;49.000;12.074;2024-02-14T11:25:23;5.20;99.90
3628;DHT22;1830;49.000;12.074;2024-02-14T11:27:51;5.30;99.90
3628;DHT22;1830;49.000;12.074;2024-02-14T11:30:29;5.40;99.90
3628;DHT22;1830;49.000;12.074;2024-02-14T11:33:10;5.40;99.90
3628;DHT22;1830;49.000;12.074;2024-02-14T11:35:39;5.40;99.90
3628;DHT22;1830;49.000;12.074;2024-02-14T11:38:06;5.40;99.90
3628;DHT22;1830;49.000;12.074;2024-02-14T11:40:33;5.40;99.90
3628;DHT22;1830;49.000;12.074;2024-02-14T11:43:00;5.40;99.90
3628;DHT22;1830;49.000;12.074;2024-02-14T11:45:28;5.40;99.90
3628;DHT22;1830;49.000;12.074;2024-02-14T11:47:55;5.50;99.90
3628;DHT22;1830;49.000;12.074;2024-02-14T11:50:22;5.60;99.90
3628;DHT22;1830;49.000;12.074;2024-02-14T11:52:49;5.60;99.90
3628;DHT22;1830;49.000;12.074;2024-02-14T11:55:17;5.60;99.90
3628;DHT22;1830;49.000;12.074;2024-02-14T11:57:44;5.60;99.90
3628;DHT22;1830;49.000;12.074;2024-02-14T12:00:14;5.60;99.90
3628;DHT22;1830;49.000;12.074;2024-02-14T12:02:42;5.60;99.90
3628;DHT22;1830;49.000;12.074;2024-02-14T12:05:09;5.60;99.90
3628;DHT22;1830;49.000;12.074;2024-02-14T12:07:36;5.70;99.90
3628;DHT22;1830;49.000;12.074;2024-02-14T12:10:03;5.70;99.90
3628;DHT22;1830;49.000;12.074;2024-02-14T12:12:31;5.80;99.90
3628;DHT22;1830;49.000;12.074;2024-02-14T12:15:01;5.80;99.90
3628;DHT22;1830;49.000;12.074;2024-02-14T12:17:28;5.80;99.90
3628;DHT22;1830;49.000;12.074;2024-02-14T12:20:08;5.90;99.90
3628;DHT22;1830;49.000;12.074;2024-02-14T12:22:36;5.80;99.90
3628;DHT22;1830;49.000;12.074;2024-02-14T12:25:03;5.90;99.90
3628;DHT22;1830;49.000;12.074;2024-02-14T12:27:32;6.00;99.90
3628;DHT22;1830;49.000;12.074;2024-02-14T12:29:59;6.10;99.90
3628;DHT22;1830;49.000;12.074;2024-02-14T12:32:26;6.20;99.90
3628;DHT22;1830;49.000;12.074;2024-02-14T12:34:55;6.20;99.90
3628;DHT22;1830;49.000;12.074;2024-02-14T12:37:24;6.30;99.90
3628;DHT22;1830;49.000;12.074;2024-02-14T12:39:51;6.40;99.90
3628;DHT22;1830;49.000;12.074;2024-02-14T12:42:18;6.40;99.90
3628;DHT22;1830;49.000;12.074;2024-02-14T12:44:50;6.30;99.90
3628;DHT22;1830;49.000;12.074;2024-02-14T12:47:17;6.40;99.90
3628;DHT22;1830;49.000;12.074;2024-02-14T12:49:46;6.50;99.90
3628;DHT22;1830;49.000;12.074;2024-02-14T12:52:14;6.30;99.90
3628;DHT22;1830;49.000;12.074;2024-02-14T12:54:43;6.50;99.90
3628;DHT22;1830;49.000;12.074;2024-02-14T12:57:10;6.70;99.90
3628;DHT22;1830;49.000;12.074;2024-02-14T12:59:37;6.90;99.90
3628;DHT22;1830;49.000;12.074;2024-02-14T13:02:04;7.00;99.90
3628;DHT22;1830;49.000;12.074;2024-02-14T13:04:32;7.00;99.90
3628;DHT22;1830;49.000;12.074;2024-02-14T13:07:00;7.00;99.90
3628;DHT22;1830;49.000;12.074;2024-02-14T13:09:27;7.00;99.90
3628;DHT22;1830;49.000;12.074;2024-02-14T13:11:55;6.90;99.90
3628;DHT22;1830;49.000;12.074;2024-02-14T13:14:23;6.90;99.90
3628;DHT22;1830;49.000;12.074;2024-02-14T13:16:50;6.80;99.90
3628;DHT22;1830;49.000;12.074;2024-02-14T13:19:17;6.90;99.90
3628;DHT22;1830;49.000;12.074;2024-02-14T13:21:43;7.00;99.90
3628;DHT22;1830;49.000;12.074;2024-02-14T13:24:11;7.00;99.90
3628;DHT22;1830;49.000;12.074;2024-02-14T13:26:39;7.20;99.90
3628;DHT22;1830;49.000;12.074;2024-02-14T13:29:07;7.40;99.90
3628;DHT22;1830;49.000;12.074;2024-02-14T13:31:34;7.40;99.90
3628;DHT22;1830;49.000;12.074;2024-02-14T13:34:01;7.60;99.90
3628;DHT22;1830;49.000;12.074;2024-02-14T13:36:29;7.60;99.90
3628;DHT22;1830;49.000;12.074;2024-02-14T13:38:56;7.50;99.90
3628;DHT22;1830;49.000;12.074;2024-02-14T13:41:23;7.60;99.90
3628;DHT22;1830;49.000;12.074;2024-02-14T13:43:50;7.50;99.90
3628;DHT22;1830;49.000;12.074;2024-02-14T13:46:18;7.40;99.90
3628;DHT22;1830;49.000;12.074;2024-02-14T13:48:45;7.40;99.90
3628;DHT22;1830;49.000;12.074;2024-02-14T13:51:11;7.60;99.90
3628;DHT22;1830;49.000;12.074;2024-02-14T13:53:38;7.80;99.90
3628;DHT22;1830;49.000;12.074;2024-02-14T13:56:06;7.90;99.90
3628;DHT22;1830;49.000;12.074;2024-02-14T13:58:33;8.10;99.90
3628;DHT22;1830;49.000;12.074;2024-02-14T14:00:59;8.00;99.90
3628;DHT22;1830;49.000;12.074;2024-02-14T14:03:27;8.20;99.90
3628;DHT22;1830;49.000;12.074;2024-02-14T14:05:55;8.20;99.90
3628;DHT22;1830;49.000;12.074;2024-02-14T14:08:22;8.20;99.90
3628;DHT22;1830;49.000;12.074;2024-02-14T14:10:49;8.30;99.90
3628;DHT22;1830;49.000;12.074;2024-02-14T14:13:16;8.30;99.90
3628;DHT22;1830;49.000;12.074;2024-02-14T14:15:43;8.20;99.90
3628;DHT22;1830;49.000;12.074;2024-02-14T14:18:09;8.20;99.90
3628;DHT22;1830;49.000;12.074;2024-02-14T14:20:38;8.20;99.90
3628;DHT22;1830;49.000;12.074;2024-02-14T14:23:06;8.20;99.90
3628;DHT22;1830;49.000;12.074;2024-02-14T14:25:33;8.20;99.90
3628;DHT22;1830;49.000;12.074;2024-02-14T14:28:00;8.20;99.90
3628;DHT22;1830;49.000;12.074;2024-02-14T14:30:27;8.20;99.90
3628;DHT22;1830;49.000;12.074;2024-02-14T14:32:54;8.00;99.90
3628;DHT22;1830;49.000;12.074;2024-02-14T14:35:21;8.00;99.90
3628;DHT22;1830;49.000;12.074;2024-02-14T14:37:49;8.00;99.90
3628;DHT22;1830;49.000;12.074;2024-02-14T14:40:17;7.90;99.90
3628;DHT22;1830;49.000;12.074;2024-02-14T14:42:44;7.80;99.90
3628;DHT22;1830;49.000;12.074;2024-02-14T14:45:11;7.80;99.90
3628;DHT22;1830;49.000;12.074;2024-02-14T14:47:38;7.80;99.90
3628;DHT22;1830;49.000;12.074;2024-02-14T14:50:05;7.80;99.90
3628;DHT22;1830;49.000;12.074;2024-02-14T14:52:32;7.80;99.90
3628;DHT22;1830;49.000;12.074;2024-02-14T14:55:02;7.80;99.90
3628;DHT22;1830;49.000;12.074;2024-02-14T14:57:28;7.80;99.90
3628;DHT22;1830;49.000;12.074;2024-02-14T14:59:55;7.80;99.90
3628;DHT22;1830;49.000;12.074;2024-02-14T15:02:22;7.70;99.90
3628;DHT22;1830;49.000;12.074;2024-02-14T15:04:49;7.60;99.90
3628;DHT22;1830;49.000;12.074;2024-02-14T15:07:16;7.60;99.90
3628;DHT22;1830;49.000;12.074;2024-02-14T15:09:45;7.50;99.90
3628;DHT22;1830;49.000;12.074;2024-02-14T15:12:13;7.40;99.90
3628;DHT22;1830;49.000;12.074;2024-02-14T15:14:40;7.40;99.90
3628;DHT22;1830;49.000;12.074;2024-02-14T15:17:07;7.40;99.90
3628;DHT22;1830;49.000;12.074;2024-02-14T15:19:34;7.40;99.90
3628;DHT22;1830;49.000;12.074;2024-02-14T15:22:01;7.40;99.90
3628;DHT22;1830;49.000;12.074;2024-02-14T15:24:29;7.40;99.90
3628;DHT22;1830;49.000;12.074;2024-02-14T15:26:55;7.30;99.90
3628;DHT22;1830;49.000;12.074;2024-02-14T15:29:28;7.30;99.90
3628;DHT22;1830;49.000;12.074;2024-02-14T15:32:20;7.30;99.90
3628;DHT22;1830;49.000;12.074;2024-02-14T15:35:05;7.10;99.90
3628;DHT22;1830;49.000;12.074;2024-02-14T15:37:34;7.10;99.90
3628;DHT22;1830;49.000;12.074;2024-02-14T15:40:01;7.10;99.90
3628;DHT22;1830;49.000;12.074;2024-02-14T15:42:28;7.00;99.90
3628;DHT22;1830;49.000;12.074;2024-02-14T15:44:56;7.00;99.90
3628;DHT22;1830;49.000;12.074;2024-02-14T15:47:22;7.00;99.90
3628;DHT22;1830;49.000;12.074;2024-02-14T15:49:49;7.00;99.90
3628;DHT22;1830;49.000;12.074;2024-02-14T15:52:16;6.90;99.90
3628;DHT22;1830;49.000;12.074;2024-02-14T15:54:44;6.90;99.90
3628;DHT22;1830;49.000;12.074;2024-02-14T15:57:10;6.90;99.90
3628;DHT22;1830;49.000;12.074;2024-02-14T15:59:37;6.80;99.90
3628;DHT22;1830;49.000;12.074;2024-02-14T16:02:07;6.80;99.90
3628;DHT22;1830;49.000;12.074;2024-02-14T16:04:36;6.80;99.90
3628;DHT22;1830;49.000;12.074;2024-02-14T16:07:04;6.90;99.90